地図

経路データ

SID SEASON NUMBER BASIN SUBBASIN NAME ISO_TIME NATURE LAT LON WMO_WIND WMO_PRES WMO_AGENCY TRACK_TYPE DIST2LAND LANDFALL IFLAG USA_AGENCY USA_ATCF_ID USA_LAT USA_LON USA_RECORD USA_STATUS USA_WIND USA_PRES USA_SSHS USA_R34_NE USA_R34_SE USA_R34_SW USA_R34_NW USA_R50_NE USA_R50_SE USA_R50_SW USA_R50_NW USA_R64_NE USA_R64_SE USA_R64_SW USA_R64_NW USA_POCI USA_ROCI USA_RMW USA_EYE TOKYO_LAT TOKYO_LON TOKYO_GRADE TOKYO_WIND TOKYO_PRES TOKYO_R50_DIR TOKYO_R50_LONG TOKYO_R50_SHORT TOKYO_R30_DIR TOKYO_R30_LONG TOKYO_R30_SHORT TOKYO_LAND CMA_LAT CMA_LON CMA_CAT CMA_WIND CMA_PRES HKO_LAT HKO_LON HKO_CAT HKO_WIND HKO_PRES NEWDELHI_LAT NEWDELHI_LON NEWDELHI_GRADE NEWDELHI_WIND NEWDELHI_PRES NEWDELHI_CI NEWDELHI_DP NEWDELHI_POCI REUNION_LAT REUNION_LON REUNION_TYPE REUNION_WIND REUNION_PRES REUNION_TNUM REUNION_CI REUNION_RMW REUNION_R34_NE REUNION_R34_SE REUNION_R34_SW REUNION_R34_NW REUNION_R50_NE REUNION_R50_SE REUNION_R50_SW REUNION_R50_NW REUNION_R64_NE REUNION_R64_SE REUNION_R64_SW REUNION_R64_NW BOM_LAT BOM_LON BOM_TYPE BOM_WIND BOM_PRES BOM_TNUM BOM_CI BOM_RMW BOM_R34_NE BOM_R34_SE BOM_R34_SW BOM_R34_NW BOM_R50_NE BOM_R50_SE BOM_R50_SW BOM_R50_NW BOM_R64_NE BOM_R64_SE BOM_R64_SW BOM_R64_NW BOM_ROCI BOM_POCI BOM_EYE BOM_POS_METHOD BOM_PRES_METHOD NADI_LAT NADI_LON NADI_CAT NADI_WIND NADI_PRES WELLINGTON_LAT WELLINGTON_LON WELLINGTON_WIND WELLINGTON_PRES DS824_LAT DS824_LON DS824_STAGE DS824_WIND DS824_PRES TD9636_LAT TD9636_LON TD9636_STAGE TD9636_WIND TD9636_PRES TD9635_LAT TD9635_LON TD9635_WIND TD9635_PRES TD9635_ROCI NEUMANN_LAT NEUMANN_LON NEUMANN_CLASS NEUMANN_WIND NEUMANN_PRES MLC_LAT MLC_LON MLC_CLASS MLC_WIND MLC_PRES USA_GUST BOM_GUST BOM_GUST_PER REUNION_GUST REUNION_GUST_PER USA_SEAHGT USA_SEARAD_NE USA_SEARAD_SE USA_SEARAD_SW USA_SEARAD_NW STORM_SPEED STORM_DIR
1986241N18248 1986 87 EP MM KAY 1986-08-28 18:00:00 TS 18.1000 -112.300 25 hurdat_epa main 587 587 O_________O___ hurdat_epa EP111986 18.1000 -112.300 TD 25 -1 18.1000 -112.300 1 25 4 270
1986241N18248 1986 87 EP MM KAY 1986-08-28 21:00:00 TS 18.1008 -112.490 main 596 596 P_________P___ EP111986 18.1025 -112.487 TD 27 -1 18.0958 -112.497 1 27 4 270
1986241N18248 1986 87 EP MM KAY 1986-08-29 00:00:00 TS 18.1000 -112.700 30 hurdat_epa main 605 605 O_________O___ hurdat_epa EP111986 18.1000 -112.700 TD 30 -1 18.1000 -112.700 1 30 4 270
1986241N18248 1986 87 EP MM KAY 1986-08-29 03:00:00 TS 18.0990 -112.941 main 615 615 P_________P___ EP111986 18.0925 -112.950 TD 30 -1 18.1186 -112.915 1 30 5 271
1986241N18248 1986 87 EP MM KAY 1986-08-29 06:00:00 TS 18.1116 -113.185 30 hurdat_epa main 631 631 O_________P___ hurdat_epa EP111986 18.1000 -113.200 TD 30 -1 18.1466 -113.140 1 30 4 278
1986241N18248 1986 87 EP MM KAY 1986-08-29 09:00:00 TS 18.1565 -113.398 main 633 633 P_________P___ EP111986 18.1500 -113.407 TD 30 -1 18.1762 -113.369 1 30 4 283
1986241N18248 1986 87 EP MM KAY 1986-08-29 12:00:00 TS 18.2000 -113.600 30 hurdat_epa main 645 645 O_________O___ hurdat_epa EP111986 18.2000 -113.600 TD 30 -1 18.2000 -113.600 1 30 4 277
1986241N18248 1986 87 EP MM KAY 1986-08-29 15:00:00 TS 18.2063 -113.798 main 657 657 P_________P___ EP111986 18.2075 -113.793 TD 27 -1 18.2029 -113.813 1 30 4 270
1986241N18248 1986 87 EP MM KAY 1986-08-29 18:00:00 TS 18.1999 -114.007 25 hurdat_epa main 670 670 O_________P___ hurdat_epa EP111986 18.2000 -114.000 TD 25 -1 18.1997 -114.028 1 30 4 269
1986241N18248 1986 87 EP MM KAY 1986-08-29 21:00:00 TS 18.1991 -114.240 main 683 683 P_________P___ EP111986 18.2000 -114.235 TD 27 -1 18.1967 -114.254 1 30 5 270
1986241N18248 1986 87 EP MM KAY 1986-08-30 00:00:00 TS 18.2000 -114.500 30 hurdat_epa main 703 703 O_________O___ hurdat_epa EP111986 18.2000 -114.500 TD 30 -1 18.2000 -114.500 1 30 5 270
1986241N18248 1986 87 EP MM KAY 1986-08-30 03:00:00 TS 18.1978 -114.788 main 725 725 P_________P___ EP111986 18.1925 -114.793 TD 30 -1 18.2137 -114.774 1 30 6 271
1986241N18248 1986 87 EP MM KAY 1986-08-30 06:00:00 TS 18.2087 -115.093 30 hurdat_epa main 746 746 O_________P___ hurdat_epa EP111986 18.2000 -115.100 TD 30 -1 18.2349 -115.070 1 30 6 275
1986241N18248 1986 87 EP MM KAY 1986-08-30 09:00:00 TS 18.2478 -115.395 main 769 761 P_________P___ EP111986 18.2425 -115.400 TD 30 -1 18.2637 -115.381 1 30 6 279
1986241N18248 1986 87 EP MM KAY 1986-08-30 12:00:00 TS 18.3000 -115.700 30 hurdat_epa main 785 785 O_________O___ hurdat_epa EP111986 18.3000 -115.700 TD 30 -1 18.3000 -115.700 1 30 6 280
1986241N18248 1986 87 EP MM KAY 1986-08-30 15:00:00 TS 18.3490 -115.993 main 808 801 P_________P___ EP111986 18.3499 -115.993 TD 32 -1 18.3464 -115.993 1 31 6 280
1986241N18248 1986 87 EP MM KAY 1986-08-30 18:00:00 TS 18.3998 -116.299 35 hurdat_epa main 825 825 O_________P___ hurdat_epa EP111986 18.4000 -116.300 TS 35 0 18.3993 -116.297 1 32 6 280
1986241N18248 1986 87 EP MM KAY 1986-08-30 21:00:00 TS 18.4562 -116.633 main 834 834 P_________P___ EP111986 18.4574 -116.635 TS 35 0 18.4526 -116.628 1 33 7 279
1986241N18248 1986 87 EP MM KAY 1986-08-31 00:00:00 TS 18.5000 -117.000 35 hurdat_epa main 858 858 O_________O___ hurdat_epa EP111986 18.5000 -117.000 TS 35 0 18.5000 -117.000 2 35 7 274
1986241N18248 1986 87 EP MM KAY 1986-08-31 03:00:00 TS 18.5067 -117.377 main 883 883 P_________P___ EP111986 18.4998 -117.370 TS 35 0 18.5275 -117.396 2 35 8 271
1986241N18248 1986 87 EP MM KAY 1986-08-31 06:00:00 TS 18.5122 -117.810 35 hurdat_epa main 909 909 O_________P___ hurdat_epa EP111986 18.5000 -117.800 TS 35 0 18.5489 -117.838 2 35 9 273
1986241N18248 1986 87 EP MM KAY 1986-08-31 09:00:00 TS 18.5495 -118.313 main 943 935 P_________P___ EP111986 18.5423 -118.305 TS 35 0 18.5709 -118.336 2 35 10 275
1986241N18248 1986 87 EP MM KAY 1986-08-31 12:00:00 TS 18.6000 -118.900 35 hurdat_epa main 978 978 O_________O___ hurdat_epa EP111986 18.6000 -118.900 TS 35 0 18.6000 -118.900 2 35 12 275
1986241N18248 1986 87 EP MM KAY 1986-08-31 15:00:00 TS 18.6482 -119.567 main 1031 1023 P_________P___ EP111986 18.6500 -119.578 TS 37 0 18.6431 -119.535 2 36 13 274
1986241N18248 1986 87 EP MM KAY 1986-08-31 18:00:00 TS 18.6982 -120.283 40 hurdat_epa main 1078 1078 O_________P___ hurdat_epa EP111986 18.7000 -120.300 TS 40 0 18.6928 -120.233 2 37 14 274
1986241N18248 1986 87 EP MM KAY 1986-08-31 21:00:00 TS 18.7489 -120.997 main 1135 1128 P_________P___ EP111986 18.7498 -121.008 TS 40 0 18.7460 -120.964 2 38 13 274
1986241N18248 1986 87 EP MM KAY 1986-09-01 00:00:00 TS 18.8000 -121.700 40 hurdat_epa main 1187 1187 O_________O___ hurdat_epa EP111986 18.8000 -121.700 TS 40 0 18.8000 -121.700 2 40 13 274
1986241N18248 1986 87 EP MM KAY 1986-09-01 03:00:00 TS 18.8484 -122.357 main 1244 1236 P_________P___ EP111986 18.8495 -122.343 TS 40 0 18.8452 -122.400 2 38 13 274
1986241N18248 1986 87 EP MM KAY 1986-09-01 06:00:00 TS 18.8979 -123.025 40 hurdat_epa main 1277 1277 O_________P___ hurdat_epa EP111986 18.9000 -123.000 TS 40 0 18.8915 -123.100 2 37 13 274
1986241N18248 1986 87 EP MM KAY 1986-09-01 09:00:00 TS 18.9479 -123.751 main 1331 1322 P_________P___ EP111986 18.9499 -123.735 TS 37 0 18.9420 -123.800 2 36 14 274
1986241N18248 1986 87 EP MM KAY 1986-09-01 12:00:00 TS 19.0000 -124.500 35 hurdat_epa main 1371 1371 O_________O___ hurdat_epa EP111986 19.0000 -124.500 TS 35 0 19.0000 -124.500 2 35 14 274
1986241N18248 1986 87 EP MM KAY 1986-09-01 15:00:00 TS 19.0498 -125.262 main 1430 1422 P_________P___ EP111986 19.0424 -125.265 TS 35 0 19.0723 -125.252 2 33 14 275
1986241N18248 1986 87 EP MM KAY 1986-09-01 18:00:00 TS 19.1127 -125.999 35 hurdat_epa main 1475 1475 O_________P___ hurdat_epa EP111986 19.1000 -126.000 TS 35 0 19.1508 -125.997 2 32 14 277
1986241N18248 1986 87 EP MM KAY 1986-09-01 21:00:00 TS 19.2071 -126.700 main 1523 1523 P_________P___ EP111986 19.1999 -126.702 TS 32 -1 19.2287 -126.693 2 31 12 279
1986241N18248 1986 87 EP MM KAY 1986-09-02 00:00:00 TS 19.3000 -127.300 30 hurdat_epa main 1564 1564 O_________O___ hurdat_epa EP111986 19.3000 -127.300 TD 30 -1 19.3000 -127.300 1 30 10 279
1986241N18248 1986 87 EP MM KAY 1986-09-02 03:00:00 TS 19.3568 -127.756 main 1598 1598 P_________P___ EP111986 19.3572 -127.745 TD 27 -1 19.3559 -127.789 1 28 8 277
1986241N18248 1986 87 EP MM KAY 1986-09-02 06:00:00 TS 19.4015 -128.121 25 hurdat_epa main 1623 1623 O_________P___ hurdat_epa EP111986 19.4000 -128.100 TD 25 -1 19.4060 -128.185 1 27 7 278
1986241N18248 1986 87 EP MM KAY 1986-09-02 09:00:00 TS 19.4508 -128.483 main 1650 1650 P_________P___ EP111986 19.4500 -128.473 TD 25 -1 19.4532 -128.514 1 26 6 279
1986241N18248 1986 87 EP MM KAY 1986-09-02 12:00:00 TS 19.5000 -128.800 25 hurdat_epa main 1675 1675 O_________O___ hurdat_epa EP111986 19.5000 -128.800 TD 25 -1 19.5000 -128.800 1 25 6 280
1986241N18248 1986 87 EP MM KAY 1986-09-02 15:00:00 TS 19.5488 -129.071 main 1701 1694 P_________P___ EP111986 19.5499 -129.065 TD 25 -1 19.5456 -129.090 1 25 5 282
1986241N18248 1986 87 EP MM KAY 1986-09-02 18:00:00 TS 19.5980 -129.311 25 hurdat_epa main 1712 1712 O_________P___ hurdat_epa EP111986 19.6000 -129.300 TD 25 -1 19.5921 -129.345 1 25 5 282
1986241N18248 1986 87 EP MM KAY 1986-09-02 21:00:00 TS 19.6481 -129.557 main 1738 1731 P_________P___ EP111986 19.6500 -129.550 TD 25 -1 19.6425 -129.578 1 25 5 282
1986241N18248 1986 87 EP MM KAY 1986-09-03 00:00:00 TS 19.7000 -129.800 25 hurdat_epa main 1749 1749 O_________O___ hurdat_epa EP111986 19.7000 -129.800 TD 25 -1 19.7000 -129.800 1 25 5 282
1986241N18248 1986 87 EP MM KAY 1986-09-03 03:00:00 TS 19.7485 -130.049 main 1766 1766 P_________P___ EP111986 19.7425 -130.058 TD 25 -1 19.7665 -130.023 1 25 5 284
1986241N18248 1986 87 EP MM KAY 1986-09-03 06:00:00 TS 19.8101 -130.287 25 hurdat_epa main 1786 1786 O_________P___ hurdat_epa EP111986 19.8000 -130.300 TD 25 -1 19.8404 -130.247 1 25 5 289
1986241N18248 1986 87 EP MM KAY 1986-09-03 09:00:00 TS 19.8973 -130.501 main 1798 1798 P_________P___ EP111986 19.8900 -130.510 TD 25 -1 19.9191 -130.473 1 25 4 296
1986241N18248 1986 87 EP MM KAY 1986-09-03 12:00:00 TS 20.0000 -130.700 25 hurdat_epa main 1810 O_________O___ hurdat_epa EP111986 20.0000 -130.700 TD 25 -1 20.0000 -130.700 1 25 4 299

IBTrACS Databaseについて

本データベースは、米国NOAAが公開する1842年以降の世界の熱帯低気圧のベストトラックデータアーカイブInternational Best Track Archive for Climate Stewardship (IBTrACS)を、ウェブで閲覧しやすい形式に変換したものです。

最終更新日:2021-10-08